Time;durP1;ratioP1;P1;durP2;ratioP2;P2;SDS_P1;SDS_P2;PMS_P1;PMS_P2;Temp;Humidity;BMP_temperature;BMP_pressure;BME280_temperature;BME280_humidity;BME280_pressure;Samples;Min_cycle;Max_cycle;Signal;HPM_P1;HPM_P2
2022/08/27 00:02:06;;;;;;;9.55;3.53;;;;;;;;;;5055708;28;20469;-69
2022/08/27 00:04:32;;;;;;;7.80;3.80;;;;;;;;;;5055760;28;20029;-69
2022/08/27 00:06:58;;;;;;;8.10;3.83;;;;;;;;;;5055980;28;20090;-69
2022/08/27 00:09:24;;;;;;;7.93;3.13;;;;;;;;;;5055652;28;20036;-69
2022/08/27 00:11:50;;;;;;;7.35;3.60;;;;;;;;;;5055625;28;20028;-69
2022/08/27 00:14:16;;;;;;;8.00;3.47;;;;;;;;;;5055478;28;20481;-69
2022/08/27 00:16:42;;;;;;;7.70;2.95;;;;;;;;;;5055515;28;20021;-69
2022/08/27 00:19:09;;;;;;;8.45;2.90;;;;;;;;;;5055426;28;20029;-69
2022/08/27 00:21:35;;;;;;;6.60;2.90;;;;;;;;;;5055407;28;20021;-68
2022/08/27 00:24:01;;;;;;;5.22;3.05;;;;;;;;;;5056135;28;20108;-69
2022/08/27 00:26:27;;;;;;;5.40;2.80;;;;;;;;;;5055646;28;20051;-69
2022/08/27 00:28:53;;;;;;;7.32;2.83;;;;;;;;;;5055843;28;20029;-69
2022/08/27 00:31:19;;;;;;;6.68;2.70;;;;;;;;;;5055282;28;20059;-68
2022/08/27 00:33:45;;;;;;;4.78;2.80;;;;;;;;;;5055409;28;20056;-69
2022/08/27 00:36:11;;;;;;;6.20;3.17;;;;;;;;;;5055144;28;20100;-69
2022/08/27 00:38:39;;;;;;;5.13;2.45;;;;;;;;;;5055148;28;20432;-69
2022/08/27 00:41:07;;;;;;;8.93;3.45;;;;;;;;;;5055380;28;20020;-69
2022/08/27 00:43:44;;;;;;;6.05;3.28;;;;;;;;;;5055046;28;20029;-69
2022/08/27 00:46:14;;;;;;;7.88;3.22;;;;;;;;;;5055321;28;20021;-69
2022/08/27 00:48:40;;;;;;;7.28;3.03;;;;;;;;;;5054902;28;20060;-69
2022/08/27 00:51:06;;;;;;;6.45;3.13;;;;;;;;;;5054198;28;20043;-69
2022/08/27 00:53:32;;;;;;;6.30;3.40;;;;;;;;;;5054750;28;20111;-69
2022/08/27 00:56:02;;;;;;;7.78;3.38;;;;;;;;;;5054774;28;20049;-69
2022/08/27 00:58:36;;;;;;;6.80;3.45;;;;;;;;;;5055283;28;20032;-68
2022/08/27 01:01:02;;;;;;;6.00;2.83;;;;;;;;;;5054630;28;20370;-69
2022/08/27 01:03:29;;;;;;;4.88;3.13;;;;;;;;;;5036783;28;20523;-69
2022/08/27 01:05:57;;;;;;;7.15;3.47;;;;;;;;;;5054596;28;20485;-70
2022/08/27 01:08:25;;;;;;;7.18;3.28;;;;;;;;;;5054829;28;20052;-68
2022/08/27 01:10:52;;;;;;;5.22;2.85;;;;;;;;;;5036546;28;20033;-68
2022/08/27 01:13:20;;;;;;;6.35;3.30;;;;;;;;;;5054645;28;20068;-69
2022/08/27 01:15:46;;;;;;;7.85;3.35;;;;;;;;;;5054427;28;20100;-68
2022/08/27 01:18:13;;;;;;;8.85;3.42;;;;;;;;;;5054653;28;20053;-68
2022/08/27 01:20:46;;;;;;;6.00;3.53;;;;;;;;;;5054312;28;20048;-68
2022/08/27 01:23:17;;;;;;;7.50;3.88;;;;;;;;;;5054760;28;20029;-69
2022/08/27 01:25:44;;;;;;;7.80;3.30;;;;;;;;;;5054770;28;20029;-68
2022/08/27 01:28:11;;;;;;;6.80;3.50;;;;;;;;;;5054226;28;20032;-69
2022/08/27 01:30:39;;;;;;;6.10;3.20;;;;;;;;;;5036213;28;20032;-69
2022/08/27 01:33:09;;;;;;;5.88;3.10;;;;;;;;;;5054275;28;20393;-69
2022/08/27 01:35:35;;;;;;;6.50;3.35;;;;;;;;;;5054590;28;20025;-70
2022/08/27 01:38:01;;;;;;;6.93;3.60;;;;;;;;;;5054504;28;20025;-68
2022/08/27 01:40:27;;;;;;;7.72;3.53;;;;;;;;;;5054198;28;20032;-69
2022/08/27 01:42:55;;;;;;;10.05;3.40;;;;;;;;;;5053859;28;20029;-69
2022/08/27 01:45:23;;;;;;;8.35;3.60;;;;;;;;;;5036018;28;20029;-68
2022/08/27 01:47:50;;;;;;;8.13;3.25;;;;;;;;;;5054071;28;20035;-69
2022/08/27 01:50:21;;;;;;;6.95;3.58;;;;;;;;;;5053769;28;20028;-69
2022/08/27 01:52:48;;;;;;;6.40;3.35;;;;;;;;;;5053620;28;20032;-70
2022/08/27 01:55:16;;;;;;;6.80;3.20;;;;;;;;;;5053733;28;20021;-69
2022/08/27 01:57:43;;;;;;;9.07;3.42;;;;;;;;;;5035460;28;20031;-68
2022/08/27 02:00:14;;;;;;;6.85;3.38;;;;;;;;;;5053722;28;20035;-70
2022/08/27 02:02:41;;;;;;;7.88;3.20;;;;;;;;;;5054106;28;20041;-69
2022/08/27 02:05:07;;;;;;;6.25;3.05;;;;;;;;;;5053537;28;20029;-69
2022/08/27 02:07:33;;;;;;;7.93;3.20;;;;;;;;;;5054035;28;20021;-68
2022/08/27 02:09:59;;;;;;;8.77;3.22;;;;;;;;;;5053386;28;20025;-68
2022/08/27 02:12:25;;;;;;;5.60;3.50;;;;;;;;;;5053958;28;20462;-68
2022/08/27 02:14:51;;;;;;;4.30;2.90;;;;;;;;;;5053292;28;20040;-69
2022/08/27 02:17:17;;;;;;;8.45;3.28;;;;;;;;;;5053336;28;20056;-69
2022/08/27 02:19:44;;;;;;;6.25;3.10;;;;;;;;;;5053557;28;20025;-69
2022/08/27 02:22:10;;;;;;;7.53;3.05;;;;;;;;;;5053812;28;20021;-68
2022/08/27 02:24:36;;;;;;;7.40;3.65;;;;;;;;;;5053777;28;20029;-68
2022/08/27 02:27:02;;;;;;;8.27;3.70;;;;;;;;;;5053216;28;20392;-68
2022/08/27 02:29:28;;;;;;;7.70;3.20;;;;;;;;;;5053462;28;20036;-69
2022/08/27 02:31:54;;;;;;;7.70;3.08;;;;;;;;;;5053220;28;20021;-69
2022/08/27 02:34:21;;;;;;;6.43;3.10;;;;;;;;;;5053361;28;20033;-68
2022/08/27 02:36:48;;;;;;;7.60;3.35;;;;;;;;;;5053437;28;20085;-69
2022/08/27 02:39:14;;;;;;;5.50;3.20;;;;;;;;;;5053127;28;20032;-69
2022/08/27 02:41:40;;;;;;;6.32;3.53;;;;;;;;;;5053366;28;20017;-69
2022/08/27 02:44:06;;;;;;;6.88;3.35;;;;;;;;;;5053348;28;20029;-68
2022/08/27 02:46:32;;;;;;;5.95;2.72;;;;;;;;;;5053068;28;20025;-70
2022/08/27 02:48:58;;;;;;;6.68;2.85;;;;;;;;;;5052972;28;20511;-69
2022/08/27 02:51:24;;;;;;;5.75;2.65;;;;;;;;;;5035187;28;20451;-69
2022/08/27 02:53:50;;;;;;;7.55;3.17;;;;;;;;;;5052879;28;20090;-68
2022/08/27 02:56:16;;;;;;;5.82;3.28;;;;;;;;;;5052737;28;20048;-69
2022/08/27 02:58:42;;;;;;;6.90;3.00;;;;;;;;;;5053163;28;20021;-68
2022/08/27 03:01:08;;;;;;;5.97;3.05;;;;;;;;;;5052972;28;20040;-68
2022/08/27 03:03:34;;;;;;;6.80;3.08;;;;;;;;;;5053412;28;20033;-68
2022/08/27 03:06:00;;;;;;;7.03;3.00;;;;;;;;;;5052808;28;20029;-68
2022/08/27 03:08:28;;;;;;;8.27;3.20;;;;;;;;;;5053036;28;20056;-69
2022/08/27 03:10:55;;;;;;;5.35;2.53;;;;;;;;;;5053060;28;20027;-69
2022/08/27 03:13:21;;;;;;;6.03;2.90;;;;;;;;;;5054570;28;20033;-68
2022/08/27 03:15:47;;;;;;;6.45;3.22;;;;;;;;;;5056652;28;20092;-70
2022/08/27 03:18:17;;;;;;;9.55;4.07;;;;;;;;;;5056626;28;20486;-68
2022/08/27 03:20:43;;;;;;;6.63;3.20;;;;;;;;;;5056583;28;20036;-69
2022/08/27 03:23:10;;;;;;;8.13;3.30;;;;;;;;;;5057058;28;20029;-69
2022/08/27 03:25:37;;;;;;;7.82;3.33;;;;;;;;;;5056481;28;20060;-69
2022/08/27 03:28:04;;;;;;;7.03;3.20;;;;;;;;;;5056737;28;20029;-67
2022/08/27 03:30:30;;;;;;;6.90;2.97;;;;;;;;;;5056700;28;20064;-68
2022/08/27 03:32:56;;;;;;;6.35;2.67;;;;;;;;;;5056559;28;20025;-70
2022/08/27 03:35:22;;;;;;;5.82;2.95;;;;;;;;;;5056535;28;20029;-69
2022/08/27 03:37:49;;;;;;;5.28;2.85;;;;;;;;;;5056231;28;20477;-69
2022/08/27 03:40:15;;;;;;;8.30;2.78;;;;;;;;;;5056232;28;20031;-69
2022/08/27 03:42:41;;;;;;;5.78;2.97;;;;;;;;;;5056465;28;20017;-68
2022/08/27 03:45:08;;;;;;;8.70;3.83;;;;;;;;;;5056348;28;20458;-68
2022/08/27 03:47:34;;;;;;;5.75;3.33;;;;;;;;;;5056070;28;20053;-69
2022/08/27 03:50:00;;;;;;;6.47;3.80;;;;;;;;;;5056061;28;20032;-70
2022/08/27 03:52:27;;;;;;;6.82;3.50;;;;;;;;;;5056537;28;20421;-68
2022/08/27 03:54:53;;;;;;;7.65;3.80;;;;;;;;;;5055861;28;20470;-68
2022/08/27 03:57:19;;;;;;;7.57;3.60;;;;;;;;;;5055445;28;20048;-69
2022/08/27 03:59:45;;;;;;;6.55;3.70;;;;;;;;;;5037951;28;20079;-69
2022/08/27 04:02:11;;;;;;;5.93;3.20;;;;;;;;;;5055756;28;20143;-69
2022/08/27 04:04:37;;;;;;;6.70;3.70;;;;;;;;;;5037837;28;20485;-68
2022/08/27 04:07:03;;;;;;;7.10;3.45;;;;;;;;;;5055953;28;20473;-69
2022/08/27 04:09:29;;;;;;;7.05;4.03;;;;;;;;;;5055645;28;20021;-68
2022/08/27 04:11:55;;;;;;;7.80;4.07;;;;;;;;;;5055603;28;20048;-69
2022/08/27 04:14:21;;;;;;;6.13;3.55;;;;;;;;;;5055553;28;20021;-68
2022/08/27 04:16:47;;;;;;;6.65;3.47;;;;;;;;;;5055561;28;20032;-69
2022/08/27 04:19:14;;;;;;;6.65;3.97;;;;;;;;;;5055528;28;20028;-68
2022/08/27 04:21:40;;;;;;;5.97;3.65;;;;;;;;;;5055508;28;20025;-69
2022/08/27 04:24:06;;;;;;;6.90;4.10;;;;;;;;;;5054786;28;20029;-68
2022/08/27 04:26:32;;;;;;;6.50;3.80;;;;;;;;;;5055217;28;20028;-69
2022/08/27 04:28:58;;;;;;;7.90;4.68;;;;;;;;;;5037445;28;20021;-69
2022/08/27 04:31:24;;;;;;;7.82;3.90;;;;;;;;;;5055563;28;20511;-69
2022/08/27 04:33:52;;;;;;;5.68;3.33;;;;;;;;;;5055161;28;20029;-69
2022/08/27 04:36:18;;;;;;;5.55;3.45;;;;;;;;;;5055743;28;20033;-68
2022/08/27 04:38:44;;;;;;;4.50;3.10;;;;;;;;;;5055443;28;20029;-68
2022/08/27 04:41:21;;;;;;;5.07;3.00;;;;;;;;;;5055119;28;20025;-70
2022/08/27 04:43:51;;;;;;;5.13;3.25;;;;;;;;;;5055136;28;20505;-68
2022/08/27 04:46:22;;;;;;;5.38;3.40;;;;;;;;;;5055052;28;20059;-69
2022/08/27 04:48:48;;;;;;;5.88;3.80;;;;;;;;;;5055226;28;20037;-69
2022/08/27 04:51:14;;;;;;;5.93;3.50;;;;;;;;;;5055142;28;20119;-69
2022/08/27 04:53:40;;;;;;;6.80;3.53;;;;;;;;;;5054807;28;20096;-68
2022/08/27 04:56:07;;;;;;;5.35;3.40;;;;;;;;;;5054991;28;20049;-68
2022/08/27 04:58:33;;;;;;;7.50;3.80;;;;;;;;;;5055074;28;20028;-69
2022/08/27 05:01:00;;;;;;;5.15;3.10;;;;;;;;;;5054630;28;20167;-69
2022/08/27 05:03:27;;;;;;;7.85;3.92;;;;;;;;;;5054978;28;20044;-68
2022/08/27 05:05:58;;;;;;;9.07;3.90;;;;;;;;;;5036785;28;20162;-68
2022/08/27 05:08:24;;;;;;;7.55;4.50;;;;;;;;;;5054875;28;20029;-69
2022/08/27 05:10:50;;;;;;;9.93;4.43;;;;;;;;;;5054556;28;20032;-68
2022/08/27 05:13:22;;;;;;;8.13;4.70;;;;;;;;;;5054449;28;20064;-69
2022/08/27 05:15:48;;;;;;;6.22;3.70;;;;;;;;;;5055056;28;20031;-68
2022/08/27 05:18:14;;;;;;;6.22;4.07;;;;;;;;;;5036456;28;20021;-69
2022/08/27 05:20:42;;;;;;;5.90;3.88;;;;;;;;;;5054570;28;20017;-70
2022/08/27 05:23:08;;;;;;;6.57;3.92;;;;;;;;;;5054762;28;20064;-69
2022/08/27 05:25:37;;;;;;;4.93;3.15;;;;;;;;;;5054217;28;20056;-69
2022/08/27 05:28:03;;;;;;;6.50;3.80;;;;;;;;;;5054201;28;20032;-69
2022/08/27 05:30:29;;;;;;;6.38;3.70;;;;;;;;;;5054415;28;20025;-69
2022/08/27 05:32:55;;;;;;;8.77;3.90;;;;;;;;;;5054023;28;20493;-69
2022/08/27 05:35:22;;;;;;;7.10;3.75;;;;;;;;;;5053658;28;20055;-68
2022/08/27 05:37:48;;;;;;;6.75;3.92;;;;;;;;;;5054273;28;20024;-69
2022/08/27 05:40:14;;;;;;;8.68;4.97;;;;;;;;;;5054253;28;20074;-69
2022/08/27 05:42:41;;;;;;;6.28;3.60;;;;;;;;;;5053901;28;20028;-69
2022/08/27 05:45:08;;;;;;;7.40;3.50;;;;;;;;;;5053886;28;20032;-69
2022/08/27 05:47:34;;;;;;;8.88;4.40;;;;;;;;;;5053845;28;20028;-69
2022/08/27 05:50:02;;;;;;;6.70;3.50;;;;;;;;;;5054039;28;20028;-69
2022/08/27 05:52:28;;;;;;;6.88;3.58;;;;;;;;;;5035902;28;20083;-68
2022/08/27 05:54:54;;;;;;;7.93;4.00;;;;;;;;;;5053666;28;20029;-69
2022/08/27 05:57:20;;;;;;;6.18;3.80;;;;;;;;;;5053209;28;20048;-69
2022/08/27 06:02:31;;;;;;;7.22;4.05;;;;;;;;;;5054145;28;20028;-69
2022/08/27 06:04:57;;;;;;;9.38;4.50;;;;;;;;;;5053888;28;20025;-68
2022/08/27 06:07:23;;;;;;;10.27;4.05;;;;;;;;;;5053518;28;20108;-69
2022/08/27 06:09:49;;;;;;;6.22;3.30;;;;;;;;;;5053511;28;20029;-69
2022/08/27 06:12:15;;;;;;;7.75;3.90;;;;;;;;;;5053749;28;20075;-70
2022/08/27 06:14:41;;;;;;;7.82;3.63;;;;;;;;;;5053616;28;20033;-68
2022/08/27 06:17:07;;;;;;;7.20;3.15;;;;;;;;;;5053356;28;20047;-70
2022/08/27 06:19:35;;;;;;;8.23;3.83;;;;;;;;;;5053904;28;20147;-69
2022/08/27 06:22:01;;;;;;;7.93;3.80;;;;;;;;;;5035447;28;20021;-70
2022/08/27 06:24:28;;;;;;;5.55;2.88;;;;;;;;;;5053787;28;20473;-68
2022/08/27 06:26:54;;;;;;;6.93;3.50;;;;;;;;;;5053506;28;20025;-70
2022/08/27 06:29:21;;;;;;;6.45;3.30;;;;;;;;;;5053445;28;20032;-69
2022/08/27 06:31:49;;;;;;;8.50;3.15;;;;;;;;;;5035333;28;20079;-68
2022/08/27 06:34:15;;;;;;;6.35;3.05;;;;;;;;;;5053104;28;20108;-69
2022/08/27 06:36:41;;;;;;;7.47;2.70;;;;;;;;;;5053188;28;20028;-69
2022/08/27 06:39:12;;;;;;;4.45;2.67;;;;;;;;;;5053126;28;20021;-69
2022/08/27 06:41:38;;;;;;;5.35;2.80;;;;;;;;;;5034995;28;20112;-70
2022/08/27 06:44:04;;;;;;;8.18;3.00;;;;;;;;;;5053299;28;20035;-70
2022/08/27 06:46:30;;;;;;;5.82;2.28;;;;;;;;;;5053043;28;20459;-69
2022/08/27 06:48:57;;;;;;;8.00;2.90;;;;;;;;;;5055955;28;20029;-70
2022/08/27 06:51:25;;;;;;;6.43;3.08;;;;;;;;;;5057149;28;20485;-69
2022/08/27 06:53:52;;;;;;;6.85;2.75;;;;;;;;;;5057299;28;20074;-70
2022/08/27 06:56:18;;;;;;;4.93;2.40;;;;;;;;;;5056867;28;20041;-69
2022/08/27 06:58:44;;;;;;;4.50;2.42;;;;;;;;;;5057026;28;20047;-69
2022/08/27 07:01:15;;;;;;;6.28;2.75;;;;;;;;;;5056864;28;20017;-69
2022/08/27 07:03:42;;;;;;;6.40;3.00;;;;;;;;;;5039002;28;20507;-69
2022/08/27 07:06:08;;;;;;;8.32;3.08;;;;;;;;;;5056847;28;20114;-70
2022/08/27 07:08:34;;;;;;;6.32;2.58;;;;;;;;;;5057356;28;20028;-70
2022/08/27 07:11:01;;;;;;;6.40;2.65;;;;;;;;;;5056772;28;20031;-70
2022/08/27 07:13:28;;;;;;;7.38;2.65;;;;;;;;;;5056728;28;20032;-70
2022/08/27 07:15:54;;;;;;;6.38;3.08;;;;;;;;;;5057043;28;20087;-70
2022/08/27 07:18:21;;;;;;;8.60;3.28;;;;;;;;;;5056703;28;20389;-70
2022/08/27 07:20:47;;;;;;;7.60;3.10;;;;;;;;;;5056673;28;20075;-70
2022/08/27 07:23:13;;;;;;;12.73;3.85;;;;;;;;;;5057407;28;20024;-71
2022/08/27 07:25:43;;;;;;;8.18;2.88;;;;;;;;;;5056508;28;20017;-71
2022/08/27 07:28:09;;;;;;;;;;;;;;;;;;5057437;28;20053;-70
2022/08/27 07:30:36;;;;;;;9.77;3.70;;;;;;;;;;5056662;28;19951;-70
2022/08/27 07:33:02;;;;;;;7.18;2.95;;;;;;;;;;5038425;28;20591;-70
2022/08/27 07:35:30;;;;;;;8.65;3.25;;;;;;;;;;5056324;28;20043;-70
2022/08/27 07:37:56;;;;;;;5.55;2.83;;;;;;;;;;5056859;28;20021;-70
2022/08/27 07:40:23;;;;;;;8.38;3.15;;;;;;;;;;5056244;28;20362;-70
2022/08/27 07:45:34;;;;;;;11.50;3.53;;;;;;;;;;5056723;28;20035;-70
2022/08/27 07:48:00;;;;;;;7.40;3.90;;;;;;;;;;5038186;28;20029;-70
2022/08/27 07:50:26;;;;;;;7.43;3.42;;;;;;;;;;5056384;28;20032;-70
2022/08/27 07:52:52;;;;;;;10.25;3.85;;;;;;;;;;5055981;28;20074;-70
2022/08/27 07:55:19;;;;;;;7.28;3.35;;;;;;;;;;5055976;28;20055;-70
2022/08/27 07:57:46;;;;;;;8.90;3.50;;;;;;;;;;5056286;28;20104;-70
2022/08/27 08:00:13;;;;;;;7.45;3.22;;;;;;;;;;5056051;28;20017;-70
2022/08/27 08:02:40;;;;;;;7.30;3.22;;;;;;;;;;5056074;28;20028;-70
2022/08/27 08:05:07;;;;;;;6.95;3.13;;;;;;;;;;5056000;28;20024;-70
2022/08/27 08:07:33;;;;;;;6.57;2.72;;;;;;;;;;5055687;28;20025;-70
2022/08/27 08:10:00;;;;;;;6.88;3.17;;;;;;;;;;5055673;28;20021;-70
2022/08/27 08:12:26;;;;;;;7.28;3.10;;;;;;;;;;5055649;28;20028;-70
2022/08/27 08:14:56;;;;;;;6.80;2.90;;;;;;;;;;5055548;28;20440;-70
2022/08/27 08:17:23;;;;;;;9.18;3.50;;;;;;;;;;5055627;28;20048;-70
2022/08/27 08:19:50;;;;;;;8.02;3.30;;;;;;;;;;5055795;28;20027;-70
2022/08/27 08:22:16;;;;;;;7.82;3.53;;;;;;;;;;5055748;28;20051;-70
2022/08/27 08:24:42;;;;;;;6.22;3.58;;;;;;;;;;5055957;28;20029;-70
2022/08/27 08:27:10;;;;;;;9.25;3.80;;;;;;;;;;5055414;28;20108;-70
2022/08/27 08:29:36;;;;;;;12.45;4.30;;;;;;;;;;5055331;28;20024;-70
2022/08/27 08:32:03;;;;;;;10.40;3.90;;;;;;;;;;5055560;28;20063;-70
2022/08/27 08:34:29;;;;;;;6.82;3.53;;;;;;;;;;5055405;28;20548;-70
2022/08/27 08:36:55;;;;;;;6.50;3.47;;;;;;;;;;5055174;28;20032;-70
2022/08/27 08:39:21;;;;;;;8.90;3.70;;;;;;;;;;5055089;28;20032;-70
2022/08/27 08:41:57;;;;;;;9.25;3.38;;;;;;;;;;5055163;28;20048;-70
2022/08/27 08:44:45;;;;;;;8.63;3.70;;;;;;;;;;5037114;28;20032;-70
2022/08/27 08:47:16;;;;;;;8.85;3.60;;;;;;;;;;5054983;28;20025;-70
2022/08/27 08:49:42;;;;;;;9.65;3.97;;;;;;;;;;5055292;28;20099;-70
2022/08/27 08:52:47;;;;;;;9.90;3.83;;;;;;;;;;5055199;28;20120;-70
2022/08/27 08:55:13;;;;;;;8.68;3.85;;;;;;;;;;5015431;28;20519;-70
2022/08/27 08:57:42;;;;;;;9.43;4.10;;;;;;;;;;5053107;28;20044;-70
2022/08/27 09:00:13;;;;;;;6.97;3.50;;;;;;;;;;5063471;28;20037;-70
2022/08/27 09:02:40;;;;;;;5.38;2.70;;;;;;;;;;5075276;28;20043;-70
2022/08/27 09:05:07;;;;;;;5.20;2.70;;;;;;;;;;5074655;28;20020;-70
2022/08/27 09:07:37;;;;;;;6.63;2.60;;;;;;;;;;5074896;28;20016;-70
2022/08/27 09:10:13;;;;;;;7.82;3.35;;;;;;;;;;5072784;28;20021;-70
2022/08/27 09:12:40;;;;;;;9.00;3.53;;;;;;;;;;5074811;28;20021;-76
2022/08/27 09:15:15;;;;;;;9.32;3.63;;;;;;;;;;5074595;28;20048;-71
2022/08/27 09:17:42;;;;;;;8.02;2.55;;;;;;;;;;5073114;28;20017;-73
2022/08/27 09:20:09;;;;;;;6.80;2.90;;;;;;;;;;5074242;28;20020;-69
2022/08/27 09:22:47;;;;;;;6.45;2.50;;;;;;;;;;5074526;28;20024;-70
2022/08/27 09:25:28;;;;;;;5.18;2.45;;;;;;;;;;5074818;28;20075;-70
2022/08/27 09:27:55;;;;;;;6.07;2.15;;;;;;;;;;5074513;28;20473;-70
2022/08/27 09:30:23;;;;;;;3.38;2.03;;;;;;;;;;5074410;28;20104;-70
2022/08/27 09:32:55;;;;;;;7.20;2.28;;;;;;;;;;5074543;28;20017;-70
2022/08/27 09:35:21;;;;;;;5.88;2.40;;;;;;;;;;5074065;28;20027;-70
2022/08/27 09:37:51;;;;;;;4.22;2.13;;;;;;;;;;5073957;28;20016;-70
2022/08/27 09:40:38;;;;;;;6.25;2.13;;;;;;;;;;5074476;28;20081;-70
2022/08/27 09:43:06;;;;;;;6.63;2.22;;;;;;;;;;5073783;28;20020;-70
2022/08/27 09:45:33;;;;;;;8.35;2.65;;;;;;;;;;5074126;28;20024;-70
2022/08/27 09:48:02;;;;;;;5.93;1.90;;;;;;;;;;5074328;28;20051;-70
2022/08/27 09:50:34;;;;;;;5.23;2.10;;;;;;;;;;5073836;28;20499;-69
2022/08/27 09:53:00;;;;;;;6.00;2.05;;;;;;;;;;5073906;28;20021;-70
2022/08/27 09:55:39;;;;;;;4.35;1.90;;;;;;;;;;5070566;28;20052;-70
2022/08/27 09:58:07;;;;;;;7.13;2.25;;;;;;;;;;5053177;28;20025;-70
2022/08/27 10:00:36;;;;;;;3.78;1.88;;;;;;;;;;5034396;28;20110;-69
2022/08/27 10:03:02;;;;;;;3.83;1.85;;;;;;;;;;5053484;28;20416;-69
2022/08/27 10:05:38;;;;;;;3.53;2.05;;;;;;;;;;5053843;28;20028;-70
2022/08/27 10:08:10;;;;;;;6.90;2.15;;;;;;;;;;5053530;28;20126;-70
2022/08/27 10:10:46;;;;;;;3.58;1.85;;;;;;;;;;5053785;28;20434;-70
2022/08/27 10:13:17;;;;;;;6.07;2.30;;;;;;;;;;5053647;28;20465;-70
2022/08/27 10:15:49;;;;;;;6.53;2.00;;;;;;;;;;5035176;28;20378;-70
2022/08/27 10:18:21;;;;;;;3.70;1.77;;;;;;;;;;5052257;28;20027;-70
2022/08/27 10:20:56;;;;;;;5.43;2.05;;;;;;;;;;5053363;28;20025;-70
2022/08/27 10:23:26;;;;;;;5.05;1.80;;;;;;;;;;5054344;28;20064;-70
2022/08/27 10:25:57;;;;;;;3.60;1.77;;;;;;;;;;5053516;28;20028;-70
2022/08/27 10:28:26;;;;;;;2.92;1.65;;;;;;;;;;5053558;28;20101;-70
2022/08/27 10:30:55;;;;;;;4.32;1.70;;;;;;;;;;5053494;28;20108;-70
2022/08/27 10:33:25;;;;;;;4.80;2.30;;;;;;;;;;5053670;28;20025;-69
2022/08/27 10:35:51;;;;;;;6.60;2.83;;;;;;;;;;5035023;28;20389;-70
2022/08/27 10:38:22;;;;;;;4.18;2.00;;;;;;;;;;5053092;28;20047;-69
2022/08/27 10:40:55;;;;;;;5.63;1.95;;;;;;;;;;5053353;28;20032;-70
2022/08/27 10:43:39;;;;;;;3.20;1.85;;;;;;;;;;5053654;28;20024;-70
2022/08/27 10:46:24;;;;;;;5.97;2.00;;;;;;;;;;5053607;28;20108;-70
2022/08/27 10:48:59;;;;;;;2.75;1.70;;;;;;;;;;5035118;28;20447;-70
2022/08/27 10:51:31;;;;;;;4.35;1.60;;;;;;;;;;5053011;28;20021;-70
2022/08/27 10:54:04;;;;;;;5.32;1.90;;;;;;;;;;5034832;28;20037;-70
2022/08/27 10:56:38;;;;;;;5.88;1.75;;;;;;;;;;5052849;28;20069;-70
2022/08/27 10:59:07;;;;;;;5.00;1.95;;;;;;;;;;5053484;28;20021;-70
2022/08/27 11:01:36;;;;;;;4.22;2.10;;;;;;;;;;5053005;28;20017;-70
2022/08/27 11:04:05;;;;;;;4.27;2.03;;;;;;;;;;5053176;28;20063;-70
2022/08/27 11:06:45;;;;;;;4.23;1.83;;;;;;;;;;5052953;28;20444;-69
2022/08/27 11:09:18;;;;;;;1.98;1.60;;;;;;;;;;5034964;28;20393;-70
2022/08/27 11:11:49;;;;;;;5.32;2.13;;;;;;;;;;5052827;28;20111;-70
2022/08/27 11:14:36;;;;;;;3.85;1.80;;;;;;;;;;5052693;28;20036;-70
2022/08/27 11:17:22;;;;;;;3.72;1.80;;;;;;;;;;5053096;28;20029;-70
2022/08/27 11:20:07;;;;;;;3.65;1.73;;;;;;;;;;5053082;28;20029;-70
2022/08/27 11:22:42;;;;;;;4.75;1.80;;;;;;;;;;5035170;28;20074;-70
2022/08/27 11:25:11;;;;;;;2.85;1.67;;;;;;;;;;5053176;28;20056;-70
2022/08/27 11:27:37;;;;;;;4.60;1.90;;;;;;;;;;5053187;28;20113;-70
2022/08/27 11:30:07;;;;;;;5.88;1.63;;;;;;;;;;5052859;28;20551;-70
2022/08/27 11:32:33;;;;;;;5.28;1.80;;;;;;;;;;5052589;28;20025;-70
2022/08/27 11:35:01;;;;;;;7.07;2.05;;;;;;;;;;5055207;28;20040;-69
2022/08/27 11:37:30;;;;;;;5.15;2.00;;;;;;;;;;5056318;28;20021;-70
2022/08/27 11:40:02;;;;;;;2.00;1.70;;;;;;;;;;5056584;28;20126;-70
2022/08/27 11:42:36;;;;;;;2.35;1.58;;;;;;;;;;5038394;28;20032;-69
2022/08/27 11:45:05;;;;;;;2.95;1.90;;;;;;;;;;5056552;28;20393;-70
2022/08/27 11:47:31;;;;;;;2.88;1.92;;;;;;;;;;5038213;28;20478;-69
2022/08/27 11:49:59;;;;;;;3.75;2.13;;;;;;;;;;5056075;28;20028;-70
2022/08/27 11:52:27;;;;;;;2.17;1.60;;;;;;;;;;5056359;28;20025;-69
2022/08/27 11:55:14;;;;;;;4.20;1.98;;;;;;;;;;5055846;28;20025;-70
2022/08/27 11:57:41;;;;;;;7.53;1.95;;;;;;;;;;5056280;28;20496;-70
2022/08/27 12:00:14;;;;;;;4.50;2.00;;;;;;;;;;5055829;28;20021;-69
2022/08/27 12:02:40;;;;;;;3.85;1.98;;;;;;;;;;5056146;28;20071;-70
2022/08/27 12:05:24;;;;;;;4.60;1.77;;;;;;;;;;5055766;28;20041;-70
2022/08/27 12:07:51;;;;;;;4.07;1.92;;;;;;;;;;5037839;28;20043;-70
2022/08/27 12:10:29;;;;;;;3.28;1.52;;;;;;;;;;5055924;28;20032;-70
2022/08/27 12:12:59;;;;;;;4.22;1.85;;;;;;;;;;5056122;28;20100;-70
2022/08/27 12:15:44;;;;;;;3.90;1.92;;;;;;;;;;5055579;28;20029;-70
2022/08/27 12:18:40;;;;;;;6.25;2.00;;;;;;;;;;5055801;28;20102;-69
2022/08/27 12:21:13;;;;;;;4.22;1.95;;;;;;;;;;5056199;28;20032;-69
2022/08/27 12:23:43;;;;;;;4.63;2.30;;;;;;;;;;5056089;28;20025;-70
2022/08/27 12:26:10;;;;;;;;;;;;;;;;;;5056157;28;20025;-70
2022/08/27 12:28:36;;;;;;;5.90;2.03;;;;;;;;;;5055989;28;20261;-70
2022/08/27 12:31:05;;;;;;;5.25;2.05;;;;;;;;;;5055329;28;20025;-69
2022/08/27 12:33:33;;;;;;;4.20;2.00;;;;;;;;;;5055821;28;20381;-70
2022/08/27 12:36:10;;;;;;;4.57;1.85;;;;;;;;;;5055277;28;20028;-69
2022/08/27 12:38:36;;;;;;;3.88;1.90;;;;;;;;;;5055581;28;20028;-70
2022/08/27 12:41:07;;;;;;;5.53;1.67;;;;;;;;;;5055143;28;20381;-70
2022/08/27 12:43:36;;;;;;;3.30;1.70;;;;;;;;;;5055705;28;20027;-70
2022/08/27 12:46:06;;;;;;;5.72;2.30;;;;;;;;;;5054454;28;20029;-69
2022/08/27 12:48:40;;;;;;;4.82;1.80;;;;;;;;;;5055010;28;20025;-70
2022/08/27 12:51:08;;;;;;;4.78;2.00;;;;;;;;;;5054995;28;20036;-70
2022/08/27 12:53:41;;;;;;;4.63;1.58;;;;;;;;;;5055389;28;20052;-69
2022/08/27 12:56:13;;;;;;;4.05;1.55;;;;;;;;;;5054639;28;20049;-69
2022/08/27 12:58:39;;;;;;;4.63;1.85;;;;;;;;;;5055329;28;20025;-70
2022/08/27 13:01:20;;;;;;;4.88;2.00;;;;;;;;;;5054674;28;20588;-69
2022/08/27 13:03:54;;;;;;;3.20;1.55;;;;;;;;;;5055069;28;20028;-70
2022/08/27 13:06:23;;;;;;;3.95;1.60;;;;;;;;;;5054905;28;20442;-70
2022/08/27 13:08:53;;;;;;;3.58;1.83;;;;;;;;;;5054677;28;20028;-70
2022/08/27 13:11:20;;;;;;;3.03;1.40;;;;;;;;;;5054609;28;20489;-70
2022/08/27 13:13:46;;;;;;;4.78;1.50;;;;;;;;;;5054769;28;20074;-70
2022/08/27 13:16:12;;;;;;;4.75;1.60;;;;;;;;;;5054470;28;20537;-69
2022/08/27 13:18:39;;;;;;;3.28;1.83;;;;;;;;;;5054414;28;20021;-70
2022/08/27 13:21:19;;;;;;;4.40;1.83;;;;;;;;;;5054396;28;20024;-69
2022/08/27 13:23:48;;;;;;;5.70;1.83;;;;;;;;;;5054950;28;20055;-70
2022/08/27 13:26:20;;;;;;;2.13;1.33;;;;;;;;;;5054808;28;20116;-70
2022/08/27 13:28:48;;;;;;;2.60;1.70;;;;;;;;;;5054605;28;20028;-70
2022/08/27 13:31:15;;;;;;;2.83;1.50;;;;;;;;;;5054479;28;20028;-70
2022/08/27 13:33:42;;;;;;;3.28;1.50;;;;;;;;;;5054083;28;20112;-70
2022/08/27 13:36:09;;;;;;;2.05;1.48;;;;;;;;;;5054370;28;20032;-70
2022/08/27 13:38:37;;;;;;;3.33;1.52;;;;;;;;;;5054114;28;20067;-70
2022/08/27 13:41:07;;;;;;;3.50;1.70;;;;;;;;;;5054313;28;20047;-70
2022/08/27 13:43:33;;;;;;;4.28;1.50;;;;;;;;;;5054007;28;20123;-70
2022/08/27 13:45:59;;;;;;;4.07;2.10;;;;;;;;;;5053905;28;20489;-70
2022/08/27 13:48:25;;;;;;;2.78;1.58;;;;;;;;;;5053873;28;20025;-70
2022/08/27 13:50:54;;;;;;;3.65;2.08;;;;;;;;;;5054341;28;20111;-70
2022/08/27 13:56:06;;;;;;;2.95;1.10;;;;;;;;;;5053406;28;20055;-69
2022/08/27 13:58:33;;;;;;;2.70;1.70;;;;;;;;;;5053564;28;20469;-70
2022/08/27 14:01:10;;;;;;;3.58;1.40;;;;;;;;;;5053770;28;20496;-70
2022/08/27 14:03:37;;;;;;;3.15;1.48;;;;;;;;;;5035701;28;20021;-69
2022/08/27 14:06:04;;;;;;;3.45;1.42;;;;;;;;;;5054142;28;20029;-70
2022/08/27 14:08:34;;;;;;;3.63;1.42;;;;;;;;;;5053541;28;20036;-70
2022/08/27 14:11:00;;;;;;;3.42;1.20;;;;;;;;;;5053837;28;20070;-70
2022/08/27 14:13:27;;;;;;;2.85;1.38;;;;;;;;;;5053433;28;20033;-70
2022/08/27 14:15:55;;;;;;;4.13;1.33;;;;;;;;;;5053437;28;20021;-70
2022/08/27 14:18:30;;;;;;;2.85;1.40;;;;;;;;;;5053364;28;20021;-70
2022/08/27 14:20:57;;;;;;;3.53;1.58;;;;;;;;;;5053613;28;20021;-70
2022/08/27 14:23:23;;;;;;;2.00;1.15;;;;;;;;;;5053613;28;20029;-70
2022/08/27 14:25:50;;;;;;;1.92;1.23;;;;;;;;;;5053791;28;20374;-70
2022/08/27 14:28:16;;;;;;;4.65;1.73;;;;;;;;;;5053245;28;20033;-70
2022/08/27 14:30:43;;;;;;;2.03;1.20;;;;;;;;;;5053728;28;20049;-70
2022/08/27 14:33:10;;;;;;;1.58;1.30;;;;;;;;;;5053076;28;20037;-70
2022/08/27 14:35:36;;;;;;;1.55;1.20;;;;;;;;;;5035164;28;20481;-70
2022/08/27 14:38:14;;;;;;;3.47;1.58;;;;;;;;;;5053307;28;20029;-70
2022/08/27 14:40:43;;;;;;;2.17;1.20;;;;;;;;;;5053428;28;20071;-70
2022/08/27 14:43:09;;;;;;;2.63;1.60;;;;;;;;;;5053115;28;20021;-70
2022/08/27 14:45:36;;;;;;;2.20;1.58;;;;;;;;;;5053369;28;20099;-70
2022/08/27 14:48:04;;;;;;;2.33;1.33;;;;;;;;;;5053328;28;20029;-70
2022/08/27 14:50:30;;;;;;;4.22;1.48;;;;;;;;;;5053032;28;20021;-69
2022/08/27 14:52:56;;;;;;;2.30;1.50;;;;;;;;;;5053042;28;20028;-70
2022/08/27 14:55:23;;;;;;;5.10;1.70;;;;;;;;;;5052706;28;20029;-70
2022/08/27 14:57:49;;;;;;;5.05;1.90;;;;;;;;;;5053529;28;20040;-70
2022/08/27 15:00:16;;;;;;;3.15;1.60;;;;;;;;;;5053421;28;20107;-70